This is the latest recevied weather packets stored in our database for station/object PU2ONU-13. If no packets are shown the sender has not sent any weather packets the latest 1 day(s).
| Time | Temp. | Humidity | Pressure | Rain* | Wind** | Luminosity | Snow |
|---|---|---|---|---|---|---|---|
| 1778090414 | 32.78° C | 29% | 1017 hPa | - | - | - | - |
| 1778089213 | 32.22° C | 28% | 1017 hPa | - | - | - | - |
| 1778088013 | 32.22° C | 29% | 1019 hPa | - | - | - | - |
| 1778077213 | 29.44° C | 38% | 1021 hPa | - | - | - | - |
| 1778068813 | 26.67° C | 47% | 1021 hPa | - | - | - | - |
| 1778065213 | 25.56° C | 49% | 1021 hPa | - | - | - | - |
| 1778064013 | 24.44° C | 52% | 1021 hPa | - | - | - | - |
| 1778060413 | 23.33° C | 52% | 1020 hPa | - | - | - | - |
| 1778058012 | 23.33° C | 53% | 1020 hPa | - | - | - | - |
| 1778056812 | 24.44° C | 51% | 1020 hPa | - | - | - | - |
| 1778055613 | 25° C | 50% | 1021 hPa | - | - | - | - |
| 1778052013 | 24.44° C | 51% | 1021 hPa | - | - | - | - |
| 1778050813 | 24.44° C | 52% | 1020 hPa | - | - | - | - |
| 1778048413 | 25° C | 52% | 1021 hPa | - | - | - | - |
| 1778046013 | 25° C | 52% | 1020 hPa | - | - | - | - |
| 1778041213 | 26.11° C | 50% | 1021 hPa | - | - | - | - |
| 1778038814 | 26.67° C | 49% | 1020 hPa | - | - | - | - |
| 1778030413 | 28.33° C | 47% | 1022 hPa | - | - | - | - |
| 1778029212 | 28.33° C | 45% | 1021 hPa | - | - | - | - |
| 1778028013 | 30° C | 44% | 1021 hPa | - | - | - | - |
| 1778026813 | 28.89° C | 47% | 1022 hPa | - | - | - | - |
| 1778018414 | 28.33° C | 48% | 1020 hPa | - | - | - | - |
| 1778017213 | 28.33° C | 47% | 1020 hPa | - | - | - | - |
| 1778013613 | 31.11° C | 37% | 1019 hPa | - | - | - | - |
| 1778010013 | 32.22° C | 31% | 1019 hPa | - | - | - | - |
* Rain since midnight (hover to see other rain measurements)
** Current wind speed in m/s (hover to see current wind gust speed)